^^
Your Local Weather - Clay, NY Station Historical Data
Daily Summary for December 3, 2017 Units:  English    Metric   Both
« Previous Day
Next Day »
Daily Weekly Monthly Yearly Custom
  High: Low: Average:
Temperature: 48.0 °F 28.9 °F 35.4 °F
Dew Point: 35.6 °F 26.6 °F 30.8 °F
Humidity: 94% 58% 84%
Wind Speed: 2.0mph 0.0mph 0.3mph
Wind Gust: 5.0mph - -
Wind- - South
Pressure: 30.25 in 30.13 in -
Precipitation: 0.00 in    
Historical Graphs
 
 
Tabular Data for December 3, 2017
Time Temperature Dew Point Pressure Wind Wind Speed Wind Gust Humidity Rainfall Rate (Hourly) solar
00:15 30.6 °F 28.6 °F 30.15 in ESE 1.0 mph 2.0 mph 92% 0.00 in 0 W/m2
00:22 30.9 °F 28.9 °F 30.15 in ESE 1.0 mph 3.0 mph 92% 0.00 in 0 W/m2
00:28 31.0 °F 28.9 °F 30.15 in Calm   3.0 mph 92% 0.00 in 0 W/m2
00:33 30.9 °F 28.9 °F 30.15 in Calm     92% 0.00 in 0 W/m2
00:39 30.9 °F 28.9 °F 30.15 in Calm   2.0 mph 92% 0.00 in 0 W/m2
00:58 30.5 °F 28.5 °F 30.14 in Calm     92% 0.00 in 0 W/m2
01:04 30.5 °F 28.7 °F 30.14 in Calm     93% 0.00 in 0 W/m2
01:10 30.6 °F 28.8 °F 30.14 in Calm   1.0 mph 93% 0.00 in 0 W/m2
01:22 30.7 °F 28.9 °F 30.14 in Calm     93% 0.00 in 0 W/m2
01:28 30.8 °F 29.0 °F 30.14 in Calm     93% 0.00 in 0 W/m2
01:34 30.7 °F 28.9 °F 30.13 in Calm     93% 0.00 in 0 W/m2
01:40 30.5 °F 28.5 °F 30.13 in Calm     92% 0.00 in 0 W/m2
01:52 30.6 °F 28.8 °F 30.13 in Calm     93% 0.00 in 0 W/m2
01:58 30.7 °F 28.9 °F 30.13 in Calm   1.0 mph 93% 0.00 in 0 W/m2
02:04 30.6 °F 28.8 °F 30.13 in Calm     93% 0.00 in 0 W/m2
02:10 30.7 °F 28.9 °F 30.13 in Calm     93% 0.00 in 0 W/m2
02:16 30.8 °F 29.0 °F 30.13 in Calm     93% 0.00 in 0 W/m2
02:22 30.8 °F 29.0 °F 30.13 in Calm     93% 0.00 in 0 W/m2
02:28 30.8 °F 29.0 °F 30.13 in Calm     93% 0.00 in 0 W/m2
02:34 31.1 °F 29.3 °F 30.13 in Calm     93% 0.00 in 0 W/m2
02:40 31.3 °F 29.5 °F 30.13 in Calm     93% 0.00 in 0 W/m2
02:46 31.5 °F 29.7 °F 30.13 in Calm     93% 0.00 in 0 W/m2
02:52 31.6 °F 29.8 °F 30.13 in Calm     93% 0.00 in 0 W/m2
02:58 31.8 °F 30.0 °F 30.13 in Calm     93% 0.00 in 0 W/m2
03:04 31.8 °F 30.0 °F 30.13 in Calm     93% 0.00 in 0 W/m2
03:10 31.8 °F 30.0 °F 30.13 in Calm   1.0 mph 93% 0.00 in 0 W/m2
03:16 31.9 °F 30.1 °F 30.13 in Calm   1.0 mph 93% 0.00 in 0 W/m2
03:28 32.0 °F 30.2 °F 30.13 in Calm     93% 0.00 in 0 W/m2
03:34 32.0 °F 30.2 °F 30.13 in Calm     93% 0.00 in 0 W/m2
03:40 32.0 °F 30.2 °F 30.13 in Calm     93% 0.00 in 0 W/m2
03:46 32.1 °F 30.3 °F 30.13 in Calm     93% 0.00 in 0 W/m2
03:52 32.2 °F 30.4 °F 30.13 in Calm     93% 0.00 in 0 W/m2
03:58 32.2 °F 30.4 °F 30.13 in Calm     93% 0.00 in 0 W/m2
04:04 32.2 °F 30.4 °F 30.13 in Calm     93% 0.00 in 0 W/m2
04:10 32.1 °F 30.3 °F 30.13 in Calm     93% 0.00 in 0 W/m2
04:16 32.0 °F 30.2 °F 30.13 in Calm     93% 0.00 in 0 W/m2
04:22 31.9 °F 30.1 °F 30.13 in Calm     93% 0.00 in 0 W/m2
04:28 31.9 °F 30.1 °F 30.13 in Calm     93% 0.00 in 0 W/m2
04:40 31.9 °F 30.1 °F 30.13 in Calm     93% 0.00 in 0 W/m2
04:46 31.9 °F 30.1 °F 30.13 in Calm     93% 0.00 in 0 W/m2
04:52 31.8 °F 30.0 °F 30.13 in Calm     93% 0.00 in 0 W/m2
04:58 31.7 °F 29.9 °F 30.13 in Calm     93% 0.00 in 0 W/m2
05:04 31.5 °F 29.7 °F 30.13 in Calm     93% 0.00 in 0 W/m2
05:10 31.4 °F 29.6 °F 30.13 in Calm     93% 0.00 in 0 W/m2
05:16 31.4 °F 29.6 °F 30.13 in Calm     93% 0.00 in 0 W/m2
05:22 31.4 °F 29.6 °F 30.13 in Calm     93% 0.00 in 0 W/m2
05:28 31.4 °F 29.6 °F 30.13 in Calm   1.0 mph 93% 0.00 in 0 W/m2
05:34 31.7 °F 29.9 °F 30.13 in Calm     93% 0.00 in 0 W/m2
05:40 31.9 °F 30.1 °F 30.13 in Calm     93% 0.00 in 0 W/m2
05:46 31.9 °F 30.1 °F 30.13 in Calm   1.0 mph 93% 0.00 in 0 W/m2
05:52 31.8 °F 30.0 °F 30.13 in Calm     93% 0.00 in 0 W/m2
06:00 31.8 °F 30.0 °F 30.13 in Calm     93% 0.00 in 0 W/m2
06:06 31.8 °F 30.0 °F 30.13 in Calm   1.0 mph 93% 0.00 in 0 W/m2
06:12 31.8 °F 30.0 °F 30.13 in Calm     93% 0.00 in 0 W/m2
06:18 31.9 °F 30.1 °F 30.13 in Calm     93% 0.00 in 0 W/m2
06:24 31.9 °F 30.1 °F 30.13 in Calm   1.0 mph 93% 0.00 in 0 W/m2
06:30 31.8 °F 30.0 °F 30.13 in Calm     93% 0.00 in 0 W/m2
06:36 31.7 °F 29.9 °F 30.13 in Calm     93% 0.00 in 0 W/m2
06:42 31.5 °F 29.7 °F 30.13 in Calm     93% 0.00 in 0 W/m2
06:48 31.4 °F 29.6 °F 30.13 in Calm   1.0 mph 93% 0.00 in 0 W/m2
06:54 31.4 °F 29.6 °F 30.14 in Calm     93% 0.00 in 0 W/m2
07:00 31.3 °F 29.5 °F 30.14 in Calm     93% 0.00 in 0 W/m2
07:06 31.1 °F 29.3 °F 30.14 in Calm     93% 0.00 in 0 W/m2
07:12 31.0 °F 29.2 °F 30.14 in Calm     93% 0.00 in 0 W/m2
07:18 30.8 °F 29.0 °F 30.14 in Calm     93% 0.00 in 0 W/m2
07:24 30.7 °F 28.9 °F 30.15 in Calm     93% 0.00 in 0 W/m2
07:30 30.5 °F 28.7 °F 30.15 in Calm     93% 0.00 in 5 W/m2
07:36 30.4 °F 28.6 °F 30.15 in Calm     93% 0.00 in 9 W/m2
07:42 30.4 °F 28.6 °F 30.15 in Calm     93% 0.00 in 11 W/m2
07:48 30.3 °F 28.5 °F 30.15 in Calm     93% 0.00 in 16 W/m2
07:54 30.2 °F 28.4 °F 30.15 in Calm     93% 0.00 in 30 W/m2
08:00 30.1 °F 28.3 °F 30.15 in Calm     93% 0.00 in 37 W/m2
08:06 30.2 °F 28.4 °F 30.15 in Calm     93% 0.00 in 37 W/m2
08:12 30.2 °F 28.4 °F 30.16 in Calm     93% 0.00 in 51 W/m2
08:18 30.4 °F 28.6 °F 30.16 in Calm     93% 0.00 in 58 W/m2
08:24 30.6 °F 28.8 °F 30.16 in Calm     93% 0.00 in 93 W/m2
08:30 31.0 °F 29.2 °F 30.16 in Calm     93% 0.00 in 102 W/m2
08:36 31.4 °F 29.6 °F 30.16 in Calm     93% 0.00 in 109 W/m2
08:42 32.0 °F 30.2 °F 30.16 in Calm     93% 0.00 in 113 W/m2
08:48 32.8 °F 31.0 °F 30.16 in Calm   1.0 mph 93% 0.00 in 118 W/m2
08:54 33.1 °F 31.6 °F 30.16 in Calm     94% 0.00 in 93 W/m2
09:00 33.4 °F 31.9 °F 30.16 in Calm     94% 0.00 in 100 W/m2
09:06 33.7 °F 32.2 °F 30.16 in Calm   2.0 mph 94% 0.00 in 79 W/m2
09:12 33.9 °F 32.1 °F 30.16 in ESE 1.0 mph 1.0 mph 93% 0.00 in 83 W/m2
09:18 34.1 °F 32.3 °F 30.16 in ESE 1.0 mph 1.0 mph 93% 0.00 in 100 W/m2
09:24 34.5 °F 32.7 °F 30.16 in Calm   1.0 mph 93% 0.00 in 227 W/m2
09:30 35.6 °F 33.5 °F 30.16 in Calm   1.0 mph 92% 0.00 in 283 W/m2
09:36 36.4 °F 33.7 °F 30.16 in East 1.0 mph 2.0 mph 90% 0.00 in 267 W/m2
09:42 36.8 °F 33.3 °F 30.16 in East 2.0 mph 3.0 mph 87% 0.00 in 195 W/m2
09:48 37.3 °F 33.5 °F 30.17 in SE 1.0 mph 3.0 mph 86% 0.00 in 120 W/m2
09:54 37.1 °F 33.0 °F 30.17 in SE 2.0 mph 3.0 mph 85% 0.00 in 141 W/m2
10:00 37.3 °F 33.2 °F 30.17 in SE 1.0 mph 1.0 mph 85% 0.00 in 146 W/m2
10:06 37.6 °F 33.5 °F 30.17 in SE 1.0 mph 2.0 mph 85% 0.00 in 178 W/m2
10:12 37.9 °F 33.2 °F 30.17 in SE 1.0 mph 2.0 mph 83% 0.00 in 171 W/m2
10:18 38.2 °F 33.2 °F 30.17 in Calm   2.0 mph 82% 0.00 in 350 W/m2
10:24 39.0 °F 33.7 °F 30.17 in SE 1.0 mph 2.0 mph 81% 0.00 in 172 W/m2
10:30 39.0 °F 33.4 °F 30.17 in SE 1.0 mph 1.0 mph 80% 0.00 in 199 W/m2
10:36 39.9 °F 34.5 °F 30.17 in Calm   1.0 mph 81% 0.00 in 371 W/m2
10:42 40.1 °F 33.1 °F 30.16 in SE 1.0 mph 3.0 mph 76% 0.00 in 197 W/m2
10:48 39.7 °F 33.1 °F 30.16 in SE 2.0 mph 3.0 mph 77% 0.00 in 185 W/m2
10:54 39.7 °F 33.7 °F 30.16 in SE 2.0 mph 3.0 mph 79% 0.00 in 193 W/m2
11:00 40.2 °F 33.9 °F 30.16 in SE 1.0 mph 1.0 mph 78% 0.00 in 380 W/m2
11:06 41.2 °F 34.5 °F 30.16 in SE 1.0 mph 1.0 mph 77% 0.00 in 434 W/m2
11:12 41.3 °F 33.6 °F 30.16 in SE 1.0 mph 3.0 mph 74% 0.00 in 299 W/m2
11:18 42.1 °F 34.7 °F 30.15 in SSE 1.0 mph 3.0 mph 75% 0.00 in 515 W/m2
11:24 42.4 °F 34.4 °F 30.15 in SSE 1.0 mph 3.0 mph 73% 0.00 in 285 W/m2
11:30 42.6 °F 33.9 °F 30.15 in SSE 1.0 mph 1.0 mph 71% 0.00 in 236 W/m2
11:36 42.3 °F 34.3 °F 30.15 in Calm   1.0 mph 73% 0.00 in 269 W/m2
11:42 43.3 °F 35.2 °F 30.15 in SSE 1.0 mph 3.0 mph 73% 0.00 in 392 W/m2
11:48 43.3 °F 34.5 °F 30.15 in SSE 1.0 mph 3.0 mph 71% 0.00 in 380 W/m2
11:54 43.1 °F 34.3 °F 30.15 in SSE 1.0 mph 2.0 mph 71% 0.00 in 462 W/m2
12:00 43.7 °F 34.6 °F 30.14 in SSE 2.0 mph 2.0 mph 70% 0.00 in 469 W/m2
12:06 43.9 °F 34.4 °F 30.14 in SSE 1.0 mph 3.0 mph 69% 0.00 in 429 W/m2
12:12 44.0 °F 34.5 °F 30.13 in SSE 1.0 mph 1.0 mph 69% 0.00 in 427 W/m2
12:18 44.4 °F 35.6 °F 30.13 in SSE 1.0 mph 2.0 mph 71% 0.00 in 422 W/m2
12:30 45.1 °F 35.2 °F 30.13 in SSE 1.0 mph 1.0 mph 68% 0.00 in 418 W/m2
12:36 46.1 °F 35.0 °F 30.13 in SSE 1.0 mph 1.0 mph 65% 0.00 in 415 W/m2
12:42 46.2 °F 34.7 °F 30.13 in SSE 1.0 mph 1.0 mph 64% 0.00 in 408 W/m2
12:48 45.5 °F 34.0 °F 30.14 in SSE 1.0 mph 2.0 mph 64% 0.00 in 401 W/m2
12:54 45.5 °F 35.5 °F 30.14 in SSE 1.0 mph 1.0 mph 68% 0.00 in 397 W/m2
13:00 46.1 °F 34.6 °F 30.14 in Calm   1.0 mph 64% 0.00 in 394 W/m2
13:06 45.7 °F 34.2 °F 30.14 in SSE 1.0 mph 2.0 mph 64% 0.00 in 387 W/m2
13:12 46.3 °F 35.2 °F 30.14 in SSE 1.0 mph 1.0 mph 65% 0.00 in 374 W/m2
13:18 46.4 °F 34.5 °F 30.14 in SW 2.0 mph 5.0 mph 63% 0.00 in 371 W/m2
13:24 47.0 °F 34.2 °F 30.14 in SW 2.0 mph 3.0 mph 61% 0.00 in 362 W/m2
13:30 47.2 °F 34.4 °F 30.14 in SW 1.0 mph 1.0 mph 61% 0.00 in 348 W/m2
13:36 47.1 °F 34.3 °F 30.14 in SW 1.0 mph 2.0 mph 61% 0.00 in 339 W/m2
13:42 47.1 °F 34.3 °F 30.14 in WSW 1.0 mph 1.0 mph 61% 0.00 in 334 W/m2
13:48 47.3 °F 34.9 °F 30.14 in WSW 1.0 mph 1.0 mph 62% 0.00 in 302 W/m2
13:54 48.0 °F 35.2 °F 30.13 in WSW 1.0 mph 2.0 mph 61% 0.00 in 313 W/m2
14:00 47.9 °F 34.7 °F 30.13 in West 1.0 mph 2.0 mph 60% 0.00 in 306 W/m2
14:06 47.0 °F 34.2 °F 30.13 in West 1.0 mph 2.0 mph 61% 0.00 in 294 W/m2
14:12 47.6 °F 35.2 °F 30.13 in Calm   1.0 mph 62% 0.00 in 285 W/m2
14:18 47.5 °F 34.3 °F 30.13 in SW 1.0 mph 1.0 mph 60% 0.00 in 276 W/m2
14:24 47.8 °F 34.2 °F 30.13 in WSW 1.0 mph 3.0 mph 59% 0.00 in 262 W/m2
14:30 47.1 °F 34.3 °F 30.13 in WSW 1.0 mph 1.0 mph 61% 0.00 in 255 W/m2
14:36 47.4 °F 34.2 °F 30.13 in WNW 2.0 mph 4.0 mph 60% 0.00 in 239 W/m2
14:42 47.4 °F 33.8 °F 30.13 in WNW 1.0 mph 2.0 mph 59% 0.00 in 225 W/m2
14:48 47.7 °F 33.6 °F 30.13 in WNW 1.0 mph 2.0 mph 58% 0.00 in 213 W/m2
14:54 47.7 °F 33.6 °F 30.14 in Calm   1.0 mph 58% 0.00 in 192 W/m2
15:00 47.6 °F 33.5 °F 30.14 in WNW 1.0 mph 1.0 mph 58% 0.00 in 178 W/m2
15:06 47.5 °F 33.4 °F 30.15 in Calm   1.0 mph 58% 0.00 in 167 W/m2
15:12 47.4 °F 34.2 °F 30.15 in WNW 1.0 mph 2.0 mph 60% 0.00 in 146 W/m2
15:18 46.1 °F 33.8 °F 30.15 in WNW 1.0 mph 2.0 mph 62% 0.00 in 130 W/m2
15:24 46.0 °F 34.5 °F 30.15 in WNW 1.0 mph 1.0 mph 64% 0.00 in 116 W/m2
15:30 45.9 °F 34.4 °F 30.15 in WNW 1.0 mph 2.0 mph 64% 0.00 in 107 W/m2
15:36 45.5 °F 34.0 °F 30.15 in WNW 1.0 mph 2.0 mph 64% 0.00 in 88 W/m2
15:42 45.4 °F 34.3 °F 30.15 in WNW 1.0 mph 1.0 mph 65% 0.00 in 46 W/m2
15:54 44.9 °F 34.2 °F 30.16 in Calm     66% 0.00 in 35 W/m2
16:00 44.1 °F 34.2 °F 30.16 in Calm     68% 0.00 in 30 W/m2
16:06 43.4 °F 33.9 °F 30.16 in Calm     69% 0.00 in 21 W/m2
16:12 42.8 °F 33.7 °F 30.16 in Calm     70% 0.00 in 16 W/m2
16:18 42.3 °F 33.6 °F 30.16 in Calm     71% 0.00 in 12 W/m2
16:24 41.9 °F 33.5 °F 30.16 in Calm     72% 0.00 in 9 W/m2
16:30 41.5 °F 33.5 °F 30.16 in Calm     73% 0.00 in 5 W/m2
16:36 40.6 °F 33.0 °F 30.17 in Calm     74% 0.00 in 0 W/m2
16:44 39.7 °F 32.4 °F 30.17 in Calm     75% 0.00 in 0 W/m2
16:50 39.0 °F 32.1 °F 30.17 in Calm     76% 0.00 in 0 W/m2
16:56 38.5 °F 31.9 °F 30.17 in Calm     77% 0.00 in 0 W/m2
17:02 37.7 °F 31.5 °F 30.17 in Calm     78% 0.00 in 0 W/m2
17:08 37.2 °F 31.3 °F 30.17 in Calm     79% 0.00 in 0 W/m2
17:14 36.7 °F 31.1 °F 30.16 in Calm     80% 0.00 in 0 W/m2
17:20 36.2 °F 30.9 °F 30.16 in Calm     81% 0.00 in 0 W/m2
17:32 35.5 °F 30.5 °F 30.17 in Calm     82% 0.00 in 0 W/m2
17:38 35.4 °F 30.8 °F 30.17 in Calm     83% 0.00 in 0 W/m2
17:44 35.1 °F 30.5 °F 30.18 in Calm     83% 0.00 in 0 W/m2
17:50 34.8 °F 30.2 °F 30.18 in Calm     83% 0.00 in 0 W/m2
17:56 34.5 °F 29.9 °F 30.18 in Calm     83% 0.00 in 0 W/m2
18:03 34.3 °F 30.0 °F 30.18 in Calm     84% 0.00 in 0 W/m2
18:08 34.1 °F 29.8 °F 30.18 in Calm     84% 0.00 in 0 W/m2
18:14 33.9 °F 29.6 °F 30.18 in Calm     84% 0.00 in 0 W/m2
18:20 33.5 °F 29.2 °F 30.18 in Calm     84% 0.00 in 0 W/m2
18:26 33.2 °F 29.2 °F 30.18 in Calm     85% 0.00 in 0 W/m2
18:32 33.1 °F 29.4 °F 30.18 in Calm     86% 0.00 in 0 W/m2
18:38 33.0 °F 29.3 °F 30.19 in Calm     86% 0.00 in 0 W/m2
18:44 32.8 °F 29.1 °F 30.19 in Calm     86% 0.00 in 0 W/m2
18:50 32.6 °F 28.9 °F 30.19 in Calm     86% 0.00 in 0 W/m2
18:56 32.5 °F 29.1 °F 30.19 in Calm     87% 0.00 in 0 W/m2
19:02 32.3 °F 28.9 °F 30.19 in Calm     87% 0.00 in 0 W/m2
19:09 32.1 °F 28.7 °F 30.19 in Calm     87% 0.00 in 0 W/m2
19:14 31.9 °F 28.5 °F 30.19 in Calm     87% 0.00 in 0 W/m2
19:20 31.6 °F 28.2 °F 30.19 in Calm     87% 0.00 in 0 W/m2
19:26 31.6 °F 28.5 °F 30.19 in Calm     88% 0.00 in 0 W/m2
19:32 31.4 °F 28.3 °F 30.19 in Calm     88% 0.00 in 0 W/m2
19:44 31.1 °F 28.0 °F 30.20 in Calm     88% 0.00 in 0 W/m2
19:50 30.9 °F 27.8 °F 30.20 in Calm     88% 0.00 in 0 W/m2
19:56 30.8 °F 27.7 °F 30.21 in Calm     88% 0.00 in 0 W/m2
20:02 30.7 °F 27.8 °F 30.21 in Calm     89% 0.00 in 0 W/m2
20:08 30.5 °F 27.6 °F 30.21 in Calm     89% 0.00 in 0 W/m2
20:14 30.4 °F 27.5 °F 30.21 in Calm     89% 0.00 in 0 W/m2
20:20 30.3 °F 27.4 °F 30.21 in Calm     89% 0.00 in 0 W/m2
20:26 30.1 °F 27.3 °F 30.21 in Calm     89% 0.00 in 0 W/m2
20:32 30.0 °F 27.2 °F 30.22 in Calm     89% 0.00 in 0 W/m2
20:38 29.9 °F 27.1 °F 30.22 in Calm     89% 0.00 in 0 W/m2
20:44 29.8 °F 27.0 °F 30.22 in Calm     89% 0.00 in 0 W/m2
20:50 29.6 °F 27.0 °F 30.23 in Calm     90% 0.00 in 0 W/m2
20:56 29.5 °F 26.9 °F 30.23 in Calm     90% 0.00 in 0 W/m2
21:02 29.6 °F 27.0 °F 30.23 in Calm     90% 0.00 in 0 W/m2
21:08 29.8 °F 27.2 °F 30.23 in Calm     90% 0.00 in 0 W/m2
21:14 30.0 °F 27.4 °F 30.23 in Calm     90% 0.00 in 0 W/m2
21:20 30.3 °F 28.0 °F 30.23 in Calm     91% 0.00 in 0 W/m2
21:26 30.7 °F 28.4 °F 30.24 in Calm     91% 0.00 in 0 W/m2
21:32 30.9 °F 28.6 °F 30.24 in Calm     91% 0.00 in 0 W/m2
21:38 31.0 °F 28.7 °F 30.24 in Calm     91% 0.00 in 0 W/m2
21:44 31.2 °F 28.9 °F 30.24 in Calm     91% 0.00 in 0 W/m2
21:50 31.6 °F 29.3 °F 30.24 in Calm     91% 0.00 in 0 W/m2
21:56 31.8 °F 29.5 °F 30.24 in Calm     91% 0.00 in 0 W/m2
22:02 31.9 °F 29.6 °F 30.24 in Calm     91% 0.00 in 0 W/m2
22:08 32.1 °F 29.8 °F 30.24 in Calm     91% 0.00 in 0 W/m2
22:18 32.4 °F 30.3 °F 30.24 in Calm     92% 0.00 in 0 W/m2
22:24 32.6 °F 30.3 °F 30.24 in Calm   1.0 mph 91% 0.00 in 0 W/m2
22:30 32.6 °F 30.3 °F 30.24 in Calm     91% 0.00 in 0 W/m2
22:36 32.6 °F 30.3 °F 30.24 in Calm     91% 0.00 in 0 W/m2
22:42 32.4 °F 30.1 °F 30.24 in Calm     91% 0.00 in 0 W/m2
22:46 32.3 °F 30.0 °F 30.24 in Calm     91% 0.00 in 0 W/m2
22:52 32.0 °F 29.7 °F 30.24 in Calm     91% 0.00 in 0 W/m2
22:58 31.7 °F 29.4 °F 30.24 in Calm     91% 0.00 in 0 W/m2
23:00 31.6 °F 29.3 °F 30.24 in Calm     91% 0.00 in 0 W/m2
23:06 31.2 °F 28.9 °F 30.24 in Calm     91% 0.00 in 0 W/m2
23:12 30.7 °F 28.4 °F 30.24 in Calm     91% 0.00 in 0 W/m2
23:18 30.2 °F 27.9 °F 30.24 in Calm     91% 0.00 in 0 W/m2
23:24 30.0 °F 27.7 °F 30.24 in Calm     91% 0.00 in 0 W/m2
23:30 29.8 °F 27.5 °F 30.24 in Calm     91% 0.00 in 0 W/m2
23:36 29.5 °F 27.2 °F 30.24 in Calm     91% 0.00 in 0 W/m2
23:40 29.4 °F 27.1 °F 30.25 in Calm     91% 0.00 in 0 W/m2
23:46 29.2 °F 26.9 °F 30.25 in Calm     91% 0.00 in 0 W/m2
23:52 29.1 °F 26.8 °F 30.25 in Calm     91% 0.00 in 0 W/m2
23:58 28.9 °F 26.6 °F 30.25 in Calm     91% 0.00 in 0 W/m2
Country Meadow, Clay, NY, USA
Compliments of Weather Underground - 2 mb